Time;durP1;ratioP1;P1;durP2;ratioP2;P2;SDS_P1;SDS_P2;PMS_P1;PMS_P2;Temp;Humidity;BMP_temperature;BMP_pressure;BME280_temperature;BME280_humidity;BME280_pressure;Samples;Min_cycle;Max_cycle;Signal;HPM_P1;HPM_P2
2021/10/11 00:01:52;;;;;;;10.10;9.10;;;;;;;-0.53;100.00;98960.28;4944868;28;20316;-71
2021/10/11 00:04:21;;;;;;;12.43;9.50;;;;;;;-0.61;100.00;98960.59;4955466;28;20706;-72
2021/10/11 00:06:50;;;;;;;9.93;8.97;;;;;;;-0.58;100.00;98970.06;4921749;28;20659;-71
2021/10/11 00:09:19;;;;;;;10.93;9.93;;;;;;;-0.56;100.00;98964.78;4958048;28;20221;-70
2021/10/11 00:11:47;;;;;;;9.87;8.47;;;;;;;-0.60;100.00;98964.91;4920705;28;20418;-71
2021/10/11 00:14:15;;;;;;;10.47;9.37;;;;;;;-0.58;100.00;98967.44;4944872;28;20233;-72
2021/10/11 00:16:43;;;;;;;10.63;7.97;;;;;;;-0.59;100.00;98969.19;4942076;28;20421;-72
2021/10/11 00:19:11;;;;;;;9.63;8.57;;;;;;;-0.61;100.00;98960.59;4945736;28;20742;-71
2021/10/11 00:21:39;;;;;;;9.87;8.87;;;;;;;-0.64;100.00;98958.16;4952002;28;20214;-71
2021/10/11 00:24:09;;;;;;;10.23;9.23;;;;;;;-0.68;100.00;98953.16;4946223;28;20529;-71
2021/10/11 00:26:37;;;;;;;11.70;9.33;;;;;;;-0.65;100.00;98958.22;4918957;28;20942;-71
2021/10/11 00:29:06;;;;;;;9.87;8.97;;;;;;;-0.66;100.00;98953.94;4955499;28;20210;-70
2021/10/11 00:31:34;;;;;;;9.37;8.43;;;;;;;-0.68;100.00;98943.59;4953359;28;20240;-72
2021/10/11 00:34:02;;;;;;;8.70;8.00;;;;;;;-0.67;100.00;98942.66;4957486;28;20226;-71
2021/10/11 00:36:30;;;;;;;11.20;9.17;;;;;;;-0.68;100.00;98943.59;4944241;28;20214;-72
2021/10/11 00:38:58;;;;;;;8.77;8.07;;;;;;;-0.60;100.00;98936.25;4947821;28;20541;-71
2021/10/11 00:41:31;;;;;;;9.23;8.40;;;;;;;-0.69;100.00;98941.06;4956529;28;20785;-72
2021/10/11 00:44:00;;;;;;;9.17;8.37;;;;;;;-0.74;100.00;98946.47;4924653;28;20229;-71
2021/10/11 00:46:28;;;;;;;10.13;9.23;;;;;;;-0.68;100.00;98951.38;4953303;28;20248;-71
2021/10/11 00:48:56;;;;;;;10.33;8.50;;;;;;;-0.69;100.00;98946.28;4951415;28;20225;-73
2021/10/11 00:51:25;;;;;;;9.40;8.43;;;;;;;-0.85;100.00;98946.94;4938951;28;20303;-72
2021/10/11 00:53:53;;;;;;;9.30;8.20;;;;;;;-0.89;100.00;98948.00;4950583;28;20226;-72
2021/10/11 00:56:22;;;;;;;8.67;7.77;;;;;;;-0.99;100.00;98936.31;4954007;28;20297;-71
2021/10/11 00:58:51;;;;;;;9.87;8.87;;;;;;;-1.05;100.00;98937.41;4922806;28;20233;-71
2021/10/11 01:01:19;;;;;;;10.63;9.13;;;;;;;-1.02;100.00;98935.53;4954954;28;20551;-71
2021/10/11 01:03:48;;;;;;;10.33;8.63;;;;;;;-1.08;100.00;98930.59;4956744;28;20856;-72
2021/10/11 01:06:16;;;;;;;10.03;8.47;;;;;;;-1.10;100.00;98927.22;4945241;28;20234;-71
2021/10/11 01:08:44;;;;;;;9.10;8.17;;;;;;;-1.13;100.00;98921.31;4957082;28;20214;-71
2021/10/11 01:11:13;;;;;;;9.87;8.83;;;;;;;-1.14;100.00;98917.00;4946281;28;20992;-71
2021/10/11 01:13:41;;;;;;;9.43;8.43;;;;;;;-1.14;100.00;98919.59;4930883;28;20230;-72
2021/10/11 01:16:10;;;;;;;10.30;8.23;;;;;;;-1.14;100.00;98911.81;4955067;28;20210;-72
2021/10/11 01:18:38;;;;;;;9.87;8.87;;;;;;;-1.18;100.00;98908.47;4957354;28;20637;-74
2021/10/11 01:21:08;;;;;;;10.77;9.70;;;;;;;-1.19;100.00;98917.19;4955944;28;20449;-71
2021/10/11 01:23:36;;;;;;;8.67;7.87;;;;;;;-1.23;100.00;98915.66;4950304;28;20774;-71
2021/10/11 01:26:04;;;;;;;11.20;8.23;;;;;;;-1.28;100.00;98915.00;4944125;28;20722;-71
2021/10/11 01:28:32;;;;;;;9.77;8.13;;;;;;;-1.24;100.00;98913.97;4955693;28;20258;-72
2021/10/11 01:31:01;;;;;;;9.20;8.20;;;;;;;-1.26;100.00;98915.78;4920196;28;20731;-72
2021/10/11 01:33:29;;;;;;;10.07;8.97;;;;;;;-1.33;100.00;98916.06;4943683;28;20702;-72
2021/10/11 01:35:57;;;;;;;8.70;7.80;;;;;;;-1.37;100.00;98911.91;4953126;28;20214;-71
2021/10/11 01:38:27;;;;;;;9.03;8.23;;;;;;;-1.38;100.00;98909.34;4945934;28;20215;-73
2021/10/11 01:40:55;;;;;;;8.97;7.90;;;;;;;-1.42;100.00;98911.25;4953443;28;20276;-71
2021/10/11 01:43:23;;;;;;;9.40;8.10;;;;;;;-1.42;100.00;98907.78;4946743;28;20234;-71
2021/10/11 01:45:52;;;;;;;7.80;7.10;;;;;;;-1.41;100.00;98907.75;4919872;28;20363;-71
2021/10/11 01:48:20;;;;;;;9.00;8.17;;;;;;;-1.49;100.00;98902.84;4956506;28;20221;-71
2021/10/11 01:50:48;;;;;;;9.57;7.40;;;;;;;-1.51;100.00;98904.69;4955637;28;20212;-70
2021/10/11 01:53:16;;;;;;;10.17;8.40;;;;;;;-1.57;100.00;98912.75;4950387;28;20238;-72
2021/10/11 01:55:45;;;;;;;8.90;8.03;;;;;;;-1.62;100.00;98905.13;4941829;28;20221;-68
2021/10/11 01:58:14;;;;;;;9.93;8.27;;;;;;;-1.61;100.00;98904.22;4944761;28;20215;-70
2021/10/11 02:00:42;;;;;;;9.20;8.00;;;;;;;-1.62;100.00;98902.53;4928637;28;20206;-68
2021/10/11 02:03:11;;;;;;;8.00;7.20;;;;;;;-1.60;100.00;98898.09;4947234;28;20226;-70
2021/10/11 02:05:39;;;;;;;10.63;7.93;;;;;;;-1.60;100.00;98899.88;4954650;28;20253;-68
2021/10/11 02:08:07;;;;;;;8.40;7.57;;;;;;;-1.54;100.00;98893.56;4951819;28;20392;-71
2021/10/11 02:10:36;;;;;;;9.77;8.47;;;;;;;-1.59;100.00;98891.16;4947917;28;20717;-73
2021/10/11 02:13:05;;;;;;;9.63;7.33;;;;;;;-1.57;100.00;98894.56;4944146;28;20566;-73
2021/10/11 02:15:33;;;;;;;8.23;7.53;;;;;;;-1.54;100.00;98885.75;4952731;28;20211;-73
2021/10/11 02:18:02;;;;;;;8.80;7.90;;;;;;;-1.54;100.00;98889.22;4922013;28;20412;-72
2021/10/11 02:20:31;;;;;;;9.27;8.30;;;;;;;-1.46;100.00;98881.94;4905960;28;20590;-73
2021/10/11 02:22:59;;;;;;;9.47;8.67;;;;;;;-1.62;100.00;98881.72;4949916;28;20214;-73
2021/10/11 02:25:27;;;;;;;9.70;8.03;;;;;;;-1.67;100.00;98890.66;4939330;28;20214;-73
2021/10/11 02:27:55;;;;;;;8.73;7.87;;;;;;;-1.65;100.00;98878.44;4955170;28;20252;-73
2021/10/11 02:30:25;;;;;;;7.67;6.87;;;;;;;-1.61;100.00;98882.59;4950674;28;20373;-72
2021/10/11 02:32:53;;;;;;;8.20;7.40;;;;;;;-1.58;100.00;98866.88;4947752;28;20217;-73
2021/10/11 02:35:21;;;;;;;11.30;8.83;;;;;;;-1.64;100.00;98865.38;4903984;28;20241;-72
2021/10/11 02:37:50;;;;;;;12.23;8.47;;;;;;;-1.68;100.00;98863.81;4947313;28;20206;-74
2021/10/11 02:40:18;;;;;;;8.97;8.17;;;;;;;-1.71;100.00;98866.53;4954665;28;20241;-72
2021/10/11 02:42:46;;;;;;;8.77;7.10;;;;;;;-1.73;100.00;98851.91;4942423;28;20215;-74
2021/10/11 02:45:14;;;;;;;9.17;8.23;;;;;;;-1.68;100.00;98858.59;4950646;28;20222;-73
2021/10/11 02:47:44;;;;;;;9.43;8.23;;;;;;;-1.68;100.00;98852.59;4953085;28;20269;-75
2021/10/11 02:50:12;;;;;;;9.07;8.30;;;;;;;-1.69;100.00;98856.91;4920620;28;20419;-73
2021/10/11 02:52:40;;;;;;;8.47;7.67;;;;;;;-1.72;100.00;98856.19;4952456;28;20207;-73
2021/10/11 02:55:09;;;;;;;7.43;6.73;;;;;;;-1.77;100.00;98864.19;4956960;28;20630;-72
2021/10/11 02:57:37;;;;;;;9.17;7.70;;;;;;;-1.80;100.00;98869.53;4943799;28;20214;-74
2021/10/11 03:00:06;;;;;;;8.07;7.27;;;;;;;-1.87;100.00;98870.69;4949874;28;20225;-76
2021/10/11 03:02:35;;;;;;;7.50;6.80;;;;;;;-1.86;100.00;98877.59;4957679;28;20218;-75
2021/10/11 03:05:04;;;;;;;8.40;7.70;;;;;;;-1.94;100.00;98873.53;4914051;28;20672;-73
2021/10/11 03:07:33;;;;;;;8.83;7.93;;;;;;;-1.97;100.00;98873.66;4956192;28;20672;-74
2021/10/11 03:10:01;;;;;;;8.90;7.23;;;;;;;-2.01;100.00;98872.09;4948162;28;20320;-73
2021/10/11 03:12:30;;;;;;;8.03;7.27;;;;;;;-2.02;100.00;98866.97;4947661;28;20956;-72
2021/10/11 03:14:58;;;;;;;8.53;7.67;;;;;;;-1.97;100.00;98865.03;4947353;28;20297;-73
2021/10/11 03:17:26;;;;;;;8.37;7.37;;;;;;;-2.05;100.00;98855.81;4954773;28;20214;-73
2021/10/11 03:19:54;;;;;;;8.23;7.40;;;;;;;-2.04;100.00;98862.69;4899691;28;20529;-74
2021/10/11 03:22:24;;;;;;;8.83;7.93;;;;;;;-1.99;100.00;98865.09;4952255;28;20574;-73
2021/10/11 03:24:52;;;;;;;8.37;7.67;;;;;;;-2.07;100.00;98867.16;4952782;28;20237;-73
2021/10/11 03:27:20;;;;;;;7.37;6.77;;;;;;;-2.11;100.00;98865.59;4941562;28;20235;-73
2021/10/11 03:29:48;;;;;;;9.70;7.60;;;;;;;-2.09;100.00;98869.81;4952472;28;20233;-73
2021/10/11 03:32:17;;;;;;;8.77;7.57;;;;;;;-2.17;100.00;98868.44;4953539;28;20202;-73
2021/10/11 03:34:45;;;;;;;7.67;6.37;;;;;;;-2.21;100.00;98862.53;4953055;28;20256;-73
2021/10/11 03:37:13;;;;;;;8.93;7.30;;;;;;;-2.13;100.00;98860.44;4922400;28;20224;-73
2021/10/11 03:39:43;;;;;;;8.70;8.10;;;;;;;-2.13;100.00;98859.63;4949481;28;20406;-75
2021/10/11 03:42:11;;;;;;;7.73;7.00;;;;;;;-2.13;100.00;98867.41;4952426;28;20511;-73
2021/10/11 03:44:39;;;;;;;8.40;7.60;;;;;;;-2.20;100.00;98853.81;4943033;28;20244;-74
2021/10/11 03:47:07;;;;;;;10.20;7.83;;;;;;;-2.20;100.00;98859.88;4952134;28;20351;-73
2021/10/11 03:49:35;;;;;;;7.50;6.80;;;;;;;-2.24;100.00;98866.09;4941346;28;20222;-73
2021/10/11 03:52:04;;;;;;;7.83;7.17;;;;;;;-2.16;100.00;98851.97;4916714;28;21690;-72
2021/10/11 03:54:32;;;;;;;8.10;7.47;;;;;;;-2.15;100.00;98857.06;4936854;28;20246;-75
2021/10/11 03:57:02;;;;;;;8.67;7.83;;;;;;;-2.02;100.00;98854.00;4948024;28;20249;-72
2021/10/11 03:59:30;;;;;;;9.13;7.80;;;;;;;-1.87;100.00;98844.72;4943271;28;20533;-72
2021/10/11 04:01:58;;;;;;;8.10;7.27;;;;;;;-1.92;100.00;98843.13;4948570;28;20425;-73
2021/10/11 04:04:26;;;;;;;7.90;7.13;;;;;;;-1.97;100.00;98841.66;4946870;28;20499;-73
2021/10/11 04:06:56;;;;;;;8.43;7.57;;;;;;;-1.95;100.00;98842.44;4942020;28;20711;-71
2021/10/11 04:09:28;;;;;;;11.07;7.73;;;;;;;-1.97;100.00;98842.47;4917673;28;20706;-72
2021/10/11 04:12:05;;;;;;;8.30;7.50;;;;;;;-1.98;100.00;98839.97;4948262;28;20198;-70
2021/10/11 04:14:35;;;;;;;8.27;7.47;;;;;;;-1.88;100.00;98825.66;4943818;28;20648;-69
2021/10/11 04:17:03;;;;;;;9.03;7.63;;;;;;;-1.89;100.00;98831.78;4952925;28;20328;-69
2021/10/11 04:19:31;;;;;;;9.80;7.77;;;;;;;-1.85;100.00;98820.34;4951996;28;20206;-69
2021/10/11 04:21:59;;;;;;;8.77;7.50;;;;;;;-1.76;100.00;98816.50;4952060;28;20312;-69
2021/10/11 04:24:28;;;;;;;9.60;8.00;;;;;;;-1.82;100.00;98807.22;4915686;28;20253;-69
2021/10/11 04:26:56;;;;;;;8.63;7.80;;;;;;;-1.75;100.00;98811.22;4924036;28;20237;-68
2021/10/11 04:29:24;;;;;;;8.30;7.37;;;;;;;-1.76;100.00;98819.13;4937884;28;20490;-69
2021/10/11 04:31:54;;;;;;;11.27;8.60;;;;;;;-1.68;100.00;98806.63;4952710;28;20216;-68
2021/10/11 04:34:22;;;;;;;8.60;7.80;;;;;;;-1.71;100.00;98800.69;4943231;28;20472;-70
2021/10/11 04:36:50;;;;;;;8.13;7.33;;;;;;;-1.56;100.00;98801.78;4949632;28;20198;-68
2021/10/11 04:39:19;;;;;;;9.57;8.43;;;;;;;-1.70;100.00;98792.03;4953340;28;20580;-69
2021/10/11 04:41:47;;;;;;;10.63;8.57;;;;;;;-1.65;100.00;98797.88;4947174;28;20465;-68
2021/10/11 04:44:15;;;;;;;8.47;7.70;;;;;;;-1.80;100.00;98796.78;4931249;28;20441;-69
2021/10/11 04:46:43;;;;;;;8.50;7.70;;;;;;;-1.80;100.00;98787.22;4955806;28;20518;-70
2021/10/11 04:49:13;;;;;;;8.10;7.40;;;;;;;-1.77;100.00;98802.66;4952038;28;20206;-70
2021/10/11 04:51:45;;;;;;;8.93;8.13;;;;;;;-1.76;100.00;98801.75;4942865;28;20667;-69
2021/10/11 04:54:14;;;;;;;9.47;8.47;;;;;;;-1.76;100.00;98806.94;4950260;28;20226;-69
2021/10/11 04:56:42;;;;;;;8.50;7.70;;;;;;;-1.87;100.00;98810.94;4954099;28;20198;-72
2021/10/11 04:59:11;;;;;;;9.80;8.90;;;;;;;-1.81;100.00;98806.31;4915503;28;20227;-72
2021/10/11 05:01:39;;;;;;;9.37;8.47;;;;;;;-1.92;100.00;98813.72;4949678;28;20207;-71
2021/10/11 05:04:08;;;;;;;9.43;8.47;;;;;;;-1.86;100.00;98813.47;4946990;28;20325;-72
2021/10/11 05:06:37;;;;;;;8.87;7.93;;;;;;;-1.86;100.00;98816.06;4940961;28;20414;-71
2021/10/11 05:09:05;;;;;;;8.53;7.67;;;;;;;-1.94;100.00;98823.34;4951655;28;20221;-72
2021/10/11 05:11:34;;;;;;;8.03;7.43;;;;;;;-1.97;100.00;98832.09;4949730;28;20226;-71
2021/10/11 05:14:02;;;;;;;11.07;8.67;;;;;;;-1.93;100.00;98836.25;4925257;28;20248;-68
2021/10/11 05:16:32;;;;;;;8.80;7.90;;;;;;;-2.04;100.00;98839.31;4950157;28;20213;-73
2021/10/11 05:19:00;;;;;;;9.37;8.47;;;;;;;-1.99;100.00;98840.88;4956676;28;20238;-72
2021/10/11 05:21:30;;;;;;;9.23;8.43;;;;;;;-2.04;100.00;98838.47;4945174;28;20233;-71
2021/10/11 05:23:59;;;;;;;10.83;7.80;;;;;;;-1.85;100.00;98850.69;4958675;28;20242;-74
2021/10/11 05:26:29;;;;;;;13.57;11.27;;;;;;;-1.93;100.00;98844.03;4954995;28;20533;-71
2021/10/11 05:28:57;;;;;;;28.97;20.43;;;;;;;-1.87;100.00;98858.53;4924817;28;20218;-71
2021/10/11 05:31:26;;;;;;;15.17;12.40;;;;;;;-1.81;100.00;98850.47;4953799;28;20690;-71
2021/10/11 05:33:54;;;;;;;16.50;12.40;;;;;;;-1.83;100.00;98859.28;4941166;28;20238;-71
2021/10/11 05:36:22;;;;;;;16.63;12.40;;;;;;;-1.92;100.00;98856.13;4949543;28;20210;-71
2021/10/11 05:38:51;;;;;;;17.73;13.97;;;;;;;-1.84;100.00;98870.56;4951854;28;20218;-72
2021/10/11 05:41:23;;;;;;;15.07;12.67;;;;;;;-1.82;100.00;98874.78;4956752;28;20213;-71
2021/10/11 05:43:51;;;;;;;21.50;13.07;;;;;;;-1.80;100.00;98875.56;4954641;28;20314;-72
2021/10/11 05:46:20;;;;;;;17.03;13.43;;;;;;;-1.83;100.00;98867.06;4923267;28;20241;-71
2021/10/11 05:49:08;;;;;;;16.80;13.00;;;;;;;-1.78;100.00;98871.13;4957265;28;20207;-72
2021/10/11 05:51:36;;;;;;;14.60;12.30;;;;;;;-1.70;100.00;98864.78;4952227;28;20458;-72
2021/10/11 05:54:04;;;;;;;12.13;10.27;;;;;;;-1.72;100.00;98861.38;4943277;28;20230;-72
2021/10/11 05:56:34;;;;;;;13.97;10.00;;;;;;;-1.64;100.00;98870.56;4955916;28;20430;-71
2021/10/11 05:59:02;;;;;;;11.83;8.87;;;;;;;-1.63;100.00;98871.41;4958561;28;20222;-72
2021/10/11 06:01:30;;;;;;;11.27;10.07;;;;;;;-1.63;100.00;98877.44;4920237;28;20850;-72
2021/10/11 06:03:59;;;;;;;11.57;10.40;;;;;;;-1.51;100.00;98877.84;4950849;28;20304;-73
2021/10/11 06:06:27;;;;;;;10.83;9.73;;;;;;;-1.40;100.00;98891.22;4947795;28;20211;-71
2021/10/11 06:08:55;;;;;;;14.87;10.70;;;;;;;-1.33;100.00;98900.44;4941814;28;20219;-72
2021/10/11 06:11:23;;;;;;;11.77;10.57;;;;;;;-1.36;100.00;98899.72;4952300;28;20218;-71
2021/10/11 06:13:53;;;;;;;11.83;9.83;;;;;;;-1.38;100.00;98894.59;4960165;28;20222;-72
2021/10/11 06:16:21;;;;;;;12.60;9.43;;;;;;;-1.34;100.00;98906.56;4919781;28;20328;-72
2021/10/11 06:18:49;;;;;;;10.60;8.67;;;;;;;-1.09;100.00;98907.25;4953828;28;20230;-71
2021/10/11 06:21:17;;;;;;;9.70;8.70;;;;;;;-0.84;100.00;98888.75;4956348;28;20206;-71
2021/10/11 06:23:47;;;;;;;9.50;8.60;;;;;;;-0.88;100.00;98895.03;4945593;28;20435;-71
2021/10/11 06:26:15;;;;;;;11.10;10.00;;;;;;;-0.67;100.00;98897.59;4956017;28;20210;-71
2021/10/11 06:28:43;;;;;;;10.80;9.80;;;;;;;-0.70;100.00;98892.53;4953334;28;20426;-71
2021/10/11 06:31:12;;;;;;;11.33;9.27;;;;;;;-0.46;100.00;98896.56;4924302;28;20229;-72
2021/10/11 06:33:41;;;;;;;11.70;10.40;;;;;;;-0.08;100.00;98898.28;4915771;28;21828;-73
2021/10/11 06:36:09;;;;;;;12.43;9.53;;;;;;;-0.10;100.00;98904.47;4956773;28;20206;-72
2021/10/11 06:38:37;;;;;;;11.23;9.93;;;;;;;0.01;100.00;98901.34;4952188;28;20234;-71
2021/10/11 06:41:05;;;;;;;12.77;10.33;;;;;;;-0.17;100.00;98896.94;4957715;28;20662;-70
2021/10/11 06:43:34;;;;;;;11.90;9.30;;;;;;;0.19;100.00;98903.06;4954501;28;20234;-71
2021/10/11 06:46:02;;;;;;;10.60;9.43;;;;;;;0.22;100.00;98899.44;4951631;28;20232;-72
2021/10/11 06:48:31;;;;;;;10.70;9.10;;;;;;;0.26;100.00;98900.97;4955603;28;20212;-71
2021/10/11 06:50:59;;;;;;;11.93;10.83;;;;;;;0.16;100.00;98897.16;4922648;28;20829;-71
2021/10/11 06:53:27;;;;;;;10.83;9.70;;;;;;;0.56;100.00;98901.19;4949852;28;20242;-72
2021/10/11 06:55:56;;;;;;;10.43;9.40;;;;;;;0.71;100.00;98896.94;4948989;28;20659;-72
2021/10/11 06:58:24;;;;;;;13.50;11.10;;;;;;;0.82;100.00;98896.41;4952790;28;20237;-73
2021/10/11 07:00:52;;;;;;;12.67;10.87;;;;;;;0.68;100.00;98891.06;4954720;28;20248;-72
2021/10/11 07:03:24;;;;;;;11.07;10.17;;;;;;;0.81;100.00;98899.09;4951119;28;20245;-72
2021/10/11 07:05:56;;;;;;;10.67;9.57;;;;;;;0.80;100.00;98897.41;4919137;28;21824;-72
2021/10/11 07:08:25;;;;;;;12.00;10.80;;;;;;;1.04;100.00;98894.44;4950393;28;20297;-71
2021/10/11 07:10:54;;;;;;;11.00;9.60;;;;;;;1.29;100.00;98892.19;4949870;28;20225;-73
2021/10/11 07:13:23;;;;;;;12.67;10.87;;;;;;;1.66;100.00;98898.94;4951744;28;20701;-71
2021/10/11 07:15:52;;;;;;;11.60;10.43;;;;;;;1.73;100.00;98902.91;4952265;28;20412;-72
2021/10/11 07:18:21;;;;;;;12.07;10.73;;;;;;;1.69;100.00;98897.00;4951647;28;20213;-72
2021/10/11 07:20:49;;;;;;;12.07;10.87;;;;;;;1.90;100.00;98883.66;4917477;28;20233;-72
2021/10/11 07:23:18;;;;;;;13.57;12.17;;;;;;;1.92;100.00;98899.28;4949826;28;20710;-71
2021/10/11 07:25:47;;;;;;;11.73;10.53;;;;;;;2.13;100.00;98887.56;4950850;28;20272;-70
2021/10/11 07:28:15;;;;;;;11.00;9.63;;;;;;;2.20;100.00;98895.06;4956476;28;20210;-73
2021/10/11 07:30:43;;;;;;;12.20;10.67;;;;;;;2.31;100.00;98893.50;4953052;28;20415;-72
2021/10/11 07:33:11;;;;;;;12.77;11.40;;;;;;;2.39;100.00;98884.38;4956275;28;20320;-73
2021/10/11 07:35:39;;;;;;;11.37;10.27;;;;;;;2.42;100.00;98892.03;4951295;28;20913;-72
2021/10/11 07:38:08;;;;;;;11.00;9.90;;;;;;;2.48;100.00;98896.94;4922823;28;20218;-69
2021/10/11 07:40:50;;;;;;;12.23;11.13;;;;;;;2.57;100.00;98887.66;4952804;28;20611;-73
2021/10/11 07:43:18;;;;;;;11.80;10.70;;;;;;;2.60;100.00;98888.34;4956262;28;20237;-71
2021/10/11 07:45:46;;;;;;;17.00;11.63;;;;;;;2.67;100.00;98896.69;4952113;28;20709;-72
2021/10/11 07:48:15;;;;;;;12.77;10.73;;;;;;;2.65;100.00;98889.84;4956294;28;20309;-72
2021/10/11 07:50:44;;;;;;;11.73;10.63;;;;;;;2.89;100.00;98892.75;4950105;28;20405;-71
2021/10/11 07:53:13;;;;;;;11.60;10.47;;;;;;;2.86;100.00;98903.41;4922426;28;20214;-72
2021/10/11 07:55:43;;;;;;;10.90;9.90;;;;;;;2.86;100.00;98899.03;4949464;28;20211;-72
2021/10/11 07:58:13;;;;;;;11.33;10.30;;;;;;;3.02;100.00;98905.94;4956468;28;20680;-72
2021/10/11 08:00:41;;;;;;;12.67;11.20;;;;;;;3.07;100.00;98922.22;4947474;28;20435;-71
2021/10/11 08:03:09;;;;;;;11.87;10.67;;;;;;;3.15;100.00;98919.97;4950046;28;20211;-71
2021/10/11 08:05:37;;;;;;;11.37;10.33;;;;;;;3.51;100.00;98927.41;4952673;28;20214;-71
2021/10/11 08:08:06;;;;;;;12.17;11.13;;;;;;;3.57;100.00;98929.66;4921463;28;20453;-71
2021/10/11 08:10:35;;;;;;;13.23;11.07;;;;;;;3.67;100.00;98924.69;4949234;28;20210;-71
2021/10/11 08:13:03;;;;;;;12.10;10.37;;;;;;;3.90;100.00;98925.84;4951965;28;20203;-71
2021/10/11 08:15:33;;;;;;;12.27;11.00;;;;;;;3.89;100.00;98934.63;4950661;28;20202;-71
2021/10/11 08:18:01;;;;;;;13.90;11.13;;;;;;;4.12;100.00;98930.53;4954606;28;20202;-72
2021/10/11 08:20:29;;;;;;;13.40;11.53;;;;;;;4.13;100.00;98924.34;4949842;28;20230;-72
2021/10/11 08:22:57;;;;;;;13.17;11.47;;;;;;;4.42;100.00;98918.97;4917726;28;21066;-73
2021/10/11 08:25:26;;;;;;;12.27;10.97;;;;;;;4.59;100.00;98912.59;4949134;28;20206;-72
2021/10/11 08:27:54;;;;;;;13.40;11.53;;;;;;;4.67;100.00;98895.47;4952832;28;20757;-70
2021/10/11 08:30:23;;;;;;;12.93;11.63;;;;;;;4.76;100.00;98898.31;4956127;28;20217;-72
2021/10/11 08:32:52;;;;;;;12.27;11.07;;;;;;;4.86;100.00;98901.16;4951760;28;20207;-74
2021/10/11 08:35:20;;;;;;;13.43;11.47;;;;;;;5.04;100.00;98898.19;4953367;28;20979;-72
2021/10/11 08:37:50;;;;;;;12.73;11.47;;;;;;;5.30;100.00;98899.03;4951411;28;20225;-72
2021/10/11 08:40:19;;;;;;;13.67;11.23;;;;;;;5.33;100.00;98901.44;4920203;28;20497;-73
2021/10/11 08:42:49;;;;;;;11.90;10.70;;;;;;;5.25;100.00;98903.75;4902888;28;20221;-72
2021/10/11 08:45:17;;;;;;;12.13;10.93;;;;;;;5.51;100.00;98901.06;4954024;28;20484;-72
2021/10/11 08:47:45;;;;;;;12.03;10.87;;;;;;;5.59;100.00;98901.34;4943149;28;20240;-71
2021/10/11 08:50:16;;;;;;;11.30;10.20;;;;;;;5.75;100.00;98895.00;4953070;28;20209;-73
2021/10/11 08:52:45;;;;;;;12.87;11.53;;;;;;;5.89;100.00;98897.47;4958854;28;20206;-71
2021/10/11 08:55:14;;;;;;;13.03;11.70;;;;;;;6.12;100.00;98888.88;4952399;28;20456;-74
2021/10/11 08:57:42;;;;;;;12.87;11.43;;;;;;;6.18;100.00;98881.38;4926873;28;20234;-72
2021/10/11 09:00:12;;;;;;;11.57;10.47;;;;;;;6.30;100.00;98881.38;4941949;28;20248;-74
2021/10/11 09:02:55;;;;;;;13.17;10.87;;;;;;;6.69;100.00;98878.50;4958386;28;20556;-74
2021/10/11 09:05:26;;;;;;;13.00;11.80;;;;;;;7.06;100.00;98878.31;4945441;28;20224;-73
2021/10/11 09:08:05;;;;;;;11.13;10.03;;;;;;;7.24;100.00;98876.03;4954726;28;20235;-71
2021/10/11 09:10:49;;;;;;;13.33;11.87;;;;;;;7.43;100.00;98864.84;4957942;28;20583;-70
2021/10/11 09:13:17;;;;;;;12.63;11.30;;;;;;;7.54;100.00;98869.25;4921436;28;20614;-70
2021/10/11 09:15:46;;;;;;;11.97;10.77;;;;;;;7.89;100.00;98862.91;4956545;28;21034;-67
2021/10/11 09:18:27;;;;;;;12.97;11.03;;;;;;;7.92;100.00;98865.28;4947254;28;22164;-69
2021/10/11 09:20:59;;;;;;;13.47;11.27;;;;;;;8.04;100.00;98855.53;4945446;28;20226;-68
2021/10/11 09:23:30;;;;;;;12.13;11.00;;;;;;;8.09;100.00;98856.00;4958306;28;20835;-69
2021/10/11 09:25:58;;;;;;;14.20;11.17;;;;;;;8.08;100.00;98856.13;4954891;28;20207;-68
2021/10/11 09:28:27;;;;;;;11.80;10.60;;;;;;;8.38;100.00;98847.44;4927777;28;20210;-69
2021/10/11 09:31:10;;;;;;;12.87;11.50;;;;;;;8.44;100.00;98850.53;4954872;28;20394;-70
2021/10/11 09:33:38;;;;;;;11.57;10.40;;;;;;;8.68;100.00;98847.66;4946195;28;20238;-69
2021/10/11 09:36:08;;;;;;;11.47;10.03;;;;;;;8.72;100.00;98854.38;4940312;28;20222;-70
2021/10/11 09:38:36;;;;;;;11.90;10.77;;;;;;;8.89;100.00;98858.19;4953714;28;20644;-70
2021/10/11 09:41:04;;;;;;;12.80;10.63;;;;;;;9.06;100.00;98845.34;4953473;28;20237;-69
2021/10/11 09:43:32;;;;;;;12.03;10.43;;;;;;;9.21;100.00;98851.91;4918245;28;20238;-68
2021/10/11 09:46:11;;;;;;;11.07;10.07;;;;;;;9.33;100.00;98841.25;4936244;28;20209;-70
2021/10/11 09:48:49;;;;;;;10.10;9.10;;;;;;;9.33;100.00;98843.91;4942355;28;20462;-69
2021/10/11 09:51:21;;;;;;;10.73;9.63;;;;;;;9.63;100.00;98842.97;4945975;28;20306;-68
2021/10/11 09:53:50;;;;;;;10.97;9.87;;;;;;;9.74;100.00;98835.88;4953998;28;20289;-70
2021/10/11 09:56:18;;;;;;;10.87;9.80;;;;;;;9.90;100.00;98851.22;4956153;28;20221;-68
2021/10/11 09:58:46;;;;;;;14.40;10.37;;;;;;;9.98;100.00;98846.06;4916385;28;20717;-69
2021/10/11 10:01:14;;;;;;;12.20;11.00;;;;;;;10.23;100.00;98846.47;4956605;28;20794;-69
2021/10/11 10:03:43;;;;;;;10.43;9.30;;;;;;;10.40;100.00;98840.47;4943034;28;21066;-70
2021/10/11 10:06:11;;;;;;;11.57;9.87;;;;;;;10.61;100.00;98836.00;4955214;28;20725;-71
2021/10/11 10:08:43;;;;;;;10.90;9.80;;;;;;;10.65;100.00;98838.22;4952840;28;20460;-70
2021/10/11 10:11:12;;;;;;;10.10;9.03;;;;;;;10.61;100.00;98831.53;4955394;28;20216;-70
2021/10/11 10:13:46;;;;;;;12.13;10.83;;;;;;;10.67;100.00;98830.13;4919986;28;21023;-68
2021/10/11 10:16:15;;;;;;;11.97;10.00;;;;;;;10.97;100.00;98829.03;4958574;28;20308;-70
2021/10/11 10:18:44;;;;;;;11.93;10.77;;;;;;;11.21;100.00;98822.38;4940821;28;20498;-68
2021/10/11 10:21:13;;;;;;;11.97;10.80;;;;;;;11.24;100.00;98816.75;4957708;28;20251;-69
2021/10/11 10:23:46;;;;;;;11.63;10.20;;;;;;;11.09;100.00;98821.72;4936707;28;20261;-68
2021/10/11 10:26:25;;;;;;;12.43;10.70;;;;;;;11.11;100.00;98811.81;4952836;28;20210;-70
2021/10/11 10:28:54;;;;;;;12.10;10.83;;;;;;;11.26;100.00;98806.84;4912687;28;20210;-71
2021/10/11 10:31:27;;;;;;;12.83;10.57;;;;;;;11.37;100.00;98820.88;4952420;28;20759;-72
2021/10/11 10:33:56;;;;;;;12.23;10.30;;;;;;;11.49;100.00;98822.31;4944810;28;20416;-71
2021/10/11 10:36:26;;;;;;;13.17;10.80;;;;;;;11.50;100.00;98821.34;4953949;28;20206;-72
2021/10/11 10:39:05;;;;;;;13.17;10.80;;;;;;;11.48;100.00;98820.66;4954159;28;20281;-70
2021/10/11 10:41:33;;;;;;;12.87;11.20;;;;;;;11.36;100.00;98811.25;4955153;28;20250;-73
2021/10/11 10:44:11;;;;;;;13.23;10.07;;;;;;;11.32;100.00;98801.91;4941454;28;20445;-73
2021/10/11 10:46:50;;;;;;;14.37;10.63;;;;;;;11.32;100.00;98792.13;4922083;28;20229;-71
2021/10/11 10:49:28;;;;;;;12.73;11.33;;;;;;;11.43;100.00;98794.59;4956387;28;20860;-72
2021/10/11 10:51:56;;;;;;;20.33;15.20;;;;;;;11.48;100.00;98793.28;4914320;28;20244;-73
2021/10/11 10:54:36;;;;;;;11.57;10.37;;;;;;;11.50;100.00;98780.72;4947073;28;20230;-72
2021/10/11 10:57:06;;;;;;;12.07;10.87;;;;;;;11.43;100.00;98780.47;4955630;28;20202;-71
2021/10/11 10:59:35;;;;;;;12.77;11.07;;;;;;;11.61;100.00;98774.34;4939478;28;20603;-71
2021/10/11 11:02:05;;;;;;;11.53;10.43;;;;;;;11.65;100.00;98773.88;4955068;28;20226;-72
2021/10/11 11:04:33;;;;;;;11.10;10.00;;;;;;;11.94;100.00;98775.47;4952921;28;20349;-71
2021/10/11 11:07:04;;;;;;;11.33;10.27;;;;;;;12.19;100.00;98780.16;4923471;28;20214;-71
2021/10/11 11:09:44;;;;;;;12.27;11.00;;;;;;;12.33;100.00;98778.75;4951988;28;20241;-72
2021/10/11 11:12:13;;;;;;;12.70;10.87;;;;;;;12.38;100.00;98777.31;4954929;28;20221;-70
2021/10/11 11:14:43;;;;;;;11.77;10.57;;;;;;;12.67;100.00;98775.31;4954982;28;20249;-70
2021/10/11 11:17:13;;;;;;;12.80;11.30;;;;;;;12.50;100.00;98774.38;4944051;28;20226;-70
2021/10/11 11:19:43;;;;;;;12.07;10.70;;;;;;;12.29;100.00;98780.88;4947474;28;20224;-73
2021/10/11 11:22:16;;;;;;;11.60;10.20;;;;;;;12.43;100.00;98775.03;4909983;28;20230;-70
2021/10/11 11:24:51;;;;;;;11.63;10.57;;;;;;;12.53;100.00;98766.09;4942131;28;20594;-72
2021/10/11 11:27:29;;;;;;;14.47;11.20;;;;;;;12.62;100.00;98772.28;4944813;28;20213;-70
2021/10/11 11:29:59;;;;;;;12.00;10.80;;;;;;;12.71;100.00;98772.19;4953150;28;20213;-72